Time;durP1;ratioP1;P1;durP2;ratioP2;P2;SDS_P1;SDS_P2;PMS_P1;PMS_P2;Temp;Humidity;BMP_temperature;BMP_pressure;BME280_temperature;BME280_humidity;BME280_pressure;Samples;Min_cycle;Max_cycle;Signal;HPM_P1;HPM_P2
2022/06/16 00:04:35;;;;;;;6.60;2.10;;;15.70;99.90;;;;;;12179497;29;20544;-80
2022/06/16 00:10:38;;;;;;;4.57;2.27;;;15.70;99.90;;;;;;12200965;29;20192;-80
2022/06/16 00:16:40;;;;;;;4.63;1.98;;;15.70;99.90;;;;;;12196203;29;20059;-80
2022/06/16 00:22:42;;;;;;;4.38;2.03;;;15.70;99.90;;;;;;12178949;29;20060;-80
2022/06/16 00:28:45;;;;;;;5.25;2.38;;;15.60;99.90;;;;;;12203168;29;20517;-81
2022/06/16 00:34:48;;;;;;;7.25;1.95;;;15.20;99.90;;;;;;12195841;29;20147;-80
2022/06/16 00:40:51;;;;;;;5.65;1.98;;;15.20;99.90;;;;;;12196540;29;20055;-80
2022/06/16 00:46:53;;;;;;;5.80;1.63;;;15.30;99.90;;;;;;12185092;29;20532;-80
2022/06/16 00:52:59;;;;;;;7.40;1.88;;;15.20;99.90;;;;;;12206806;29;20053;-81
2022/06/16 00:59:04;;;;;;;7.07;2.03;;;15.30;99.90;;;;;;12200990;29;20053;-80
2022/06/16 01:05:06;;;;;;;4.75;2.00;;;15.20;99.90;;;;;;12199198;29;20053;-80
2022/06/16 01:13:41;;;;;;;5.88;2.30;;;15.20;99.90;;;;;;12195727;29;20060;-80
2022/06/16 01:18:02;;;;;;;4.50;1.52;;;15.10;99.90;;;;;;12203123;29;20061;-80
2022/06/16 01:24:10;;;;;;;5.32;1.70;;;15.10;99.90;;;;;;12187056;29;20118;-80
2022/06/16 01:30:14;;;;;;;5.45;2.08;;;15.20;99.90;;;;;;12195462;29;20069;-80
2022/06/16 01:36:21;;;;;;;6.85;2.03;;;14.90;99.90;;;;;;12199516;29;20464;-80
2022/06/16 01:42:36;;;;;;;7.70;2.10;;;14.90;99.90;;;;;;12211192;29;20088;-80
2022/06/16 01:48:41;;;;;;;4.93;1.70;;;15.00;99.90;;;;;;12204618;29;20566;-80
2022/06/16 01:54:53;;;;;;;6.93;1.65;;;14.90;99.90;;;;;;12198606;29;20147;-80
2022/06/16 02:00:59;;;;;;;5.95;2.05;;;14.80;99.90;;;;;;12180627;29;20163;-80
2022/06/16 02:07:07;;;;;;;8.15;2.00;;;14.70;99.90;;;;;;12202153;29;20492;-80
2022/06/16 02:13:13;;;;;;;3.85;1.92;;;14.60;99.90;;;;;;12201587;29;20056;-80
2022/06/16 02:19:19;;;;;;;5.03;2.05;;;14.60;99.90;;;;;;12197697;29;20129;-80
2022/06/16 02:25:21;;;;;;;6.10;1.60;;;14.70;99.90;;;;;;12175097;29;20084;-80
2022/06/16 02:31:42;;;;;;;6.03;1.85;;;14.80;99.90;;;;;;12208955;29;20099;-80
2022/06/16 02:38:08;;;;;;;6.75;2.08;;;14.60;99.90;;;;;;12203782;29;20064;-80
2022/06/16 02:44:52;;;;;;;4.57;1.77;;;14.50;99.90;;;;;;12200359;29;20080;-81
2022/06/16 02:51:28;;;;;;;6.57;1.90;;;14.50;99.90;;;;;;12171207;29;20203;-80
2022/06/16 02:57:38;;;;;;;5.35;2.00;;;14.40;99.90;;;;;;12194435;29;20103;-80
2022/06/16 03:03:40;;;;;;;5.60;2.08;;;14.30;99.90;;;;;;12170874;29;20536;-80
2022/06/16 03:09:42;;;;;;;8.15;1.90;;;14.20;99.90;;;;;;12199979;29;20056;-80
2022/06/16 03:15:44;;;;;;;2.42;1.52;;;14.40;99.90;;;;;;12196922;29;20052;-80
2022/06/16 03:21:46;;;;;;;4.60;1.75;;;14.40;99.90;;;;;;12200347;29;20048;-80
2022/06/16 03:27:47;;;;;;;5.60;1.70;;;14.40;99.90;;;;;;12206690;29;20416;-80
2022/06/16 03:33:49;;;;;;;4.90;2.08;;;14.20;99.90;;;;;;12177388;29;20517;-80
2022/06/16 03:39:51;;;;;;;6.82;2.25;;;14.20;99.90;;;;;;12198563;29;20451;-80
2022/06/16 03:45:53;;;;;;;6.00;2.00;;;14.20;99.90;;;;;;12200824;29;20138;-80
2022/06/16 03:51:55;;;;;;;5.60;1.85;;;14.30;99.90;;;;;;12209584;29;20548;-80
2022/06/16 03:57:57;;;;;;;5.50;1.95;;;14.20;99.90;;;;;;12203355;29;20187;-80
2022/06/16 04:04:01;;;;;;;7.07;2.05;;;14.20;99.90;;;;;;12191203;29;20048;-80
2022/06/16 04:10:05;;;;;;;7.13;1.80;;;14.20;99.90;;;;;;12175860;29;20649;-80
2022/06/16 04:16:07;;;;;;;8.20;2.43;;;14.10;99.90;;;;;;12187056;29;20060;-80
2022/06/16 04:22:09;;;;;;;5.63;2.30;;;14.00;99.90;;;;;;12200552;29;20053;-80
2022/06/16 04:28:11;;;;;;;5.18;2.22;;;14.10;99.90;;;;;;12186086;29;20064;-80
2022/06/16 04:34:14;;;;;;;7.55;2.50;;;13.90;99.90;;;;;;12204688;29;20120;-80
2022/06/16 04:40:15;;;;;;;6.28;2.63;;;13.90;99.90;;;;;;12184619;29;20056;-80
2022/06/16 04:46:19;;;;;;;5.47;2.53;;;13.80;99.90;;;;;;12172196;29;20115;-80
2022/06/16 04:52:22;;;;;;;8.48;2.53;;;14.00;99.90;;;;;;12209310;29;20052;-80
2022/06/16 04:58:25;;;;;;;5.43;2.53;;;13.90;99.90;;;;;;12196845;29;20131;-80
2022/06/16 05:04:26;;;;;;;6.78;2.80;;;13.90;99.90;;;;;;12174050;29;20049;-80
2022/06/16 05:10:28;;;;;;;8.15;2.78;;;14.00;99.90;;;;;;12198980;29;20544;-80
2022/06/16 05:16:30;;;;;;;7.53;2.38;;;14.00;99.90;;;;;;12185284;29;20496;-80
2022/06/16 05:22:33;;;;;;;8.35;2.20;;;13.90;99.90;;;;;;12204048;29;20081;-80
2022/06/16 05:28:36;;;;;;;5.00;2.03;;;14.00;99.90;;;;;;12195245;29;20511;-80
2022/06/16 05:34:38;;;;;;;4.18;2.00;;;14.00;99.90;;;;;;12201310;29;20178;-81
2022/06/16 05:40:40;;;;;;;12.18;2.22;;;13.90;99.90;;;;;;12190717;29;20480;-81
2022/06/16 05:46:42;;;;;;;4.38;2.08;;;13.80;99.90;;;;;;12188106;29;20060;-81
2022/06/16 05:52:45;;;;;;;6.10;2.20;;;13.90;99.90;;;;;;12208665;29;20024;-81
2022/06/16 05:58:47;;;;;;;4.80;2.08;;;14.00;99.90;;;;;;12221360;29;20132;-81
2022/06/16 06:04:49;;;;;;;5.55;1.55;;;14.10;99.90;;;;;;12181676;29;20523;-80
2022/06/16 06:17:15;;;;;;;4.05;1.50;;;14.40;99.90;;;;;;12189160;29;20052;-80
2022/06/16 06:23:17;;;;;;;4.13;1.40;;;14.40;99.90;;;;;;12168048;29;20107;-81
2022/06/16 06:29:19;;;;;;;6.15;1.55;;;14.40;99.90;;;;;;12195917;29;20060;-80
2022/06/16 06:35:21;;;;;;;5.47;1.83;;;14.40;99.90;;;;;;12187403;29;20059;-80
2022/06/16 06:41:23;;;;;;;5.13;1.77;;;14.40;99.90;;;;;;12202188;29;20465;-80
2022/06/16 06:47:30;;;;;;;4.15;1.50;;;14.70;99.90;;;;;;12157887;29;20093;-81
2022/06/16 06:53:32;;;;;;;3.47;1.42;;;14.90;99.90;;;;;;12187442;29;20257;-81
2022/06/16 06:59:34;;;;;;;4.68;1.42;;;14.80;99.90;;;;;;12182685;29;20055;-80
2022/06/16 07:05:38;;;;;;;3.20;1.48;;;14.70;99.90;;;;;;12174849;29;20056;-81
2022/06/16 07:11:41;;;;;;;3.60;1.40;;;14.80;99.90;;;;;;12182438;29;20107;-81
2022/06/16 07:17:43;;;;;;;3.08;1.65;;;14.80;99.90;;;;;;12180447;29;20051;-80
2022/06/16 07:23:45;;;;;;;3.42;1.45;;;14.90;99.90;;;;;;12199721;29;20075;-81
2022/06/16 07:29:49;;;;;;;4.57;1.38;;;15.00;99.90;;;;;;12188299;29;20060;-80
2022/06/16 07:35:53;;;;;;;3.72;1.33;;;14.90;99.90;;;;;;12202117;29;20064;-81
2022/06/16 07:41:55;;;;;;;3.67;1.10;;;15.10;99.90;;;;;;12234879;29;20052;-81
2022/06/16 07:48:00;;;;;;;5.65;1.23;;;15.20;99.90;;;;;;12188797;29;20139;-81
2022/06/16 07:54:02;;;;;;;8.52;1.63;;;15.30;99.90;;;;;;12187828;29;20580;-81
2022/06/16 08:00:05;;;;;;;4.03;1.23;;;15.50;99.90;;;;;;12180006;29;20061;-81
2022/06/16 08:06:14;;;;;;;3.40;1.17;;;15.60;99.90;;;;;;12176743;29;20049;-81
2022/06/16 08:12:16;;;;;;;2.13;0.77;;;15.70;99.90;;;;;;12198099;29;20072;-81
2022/06/16 08:18:21;;;;;;;2.15;1.00;;;15.80;99.90;;;;;;12186434;29;20059;-80
2022/06/16 08:24:23;;;;;;;3.10;0.80;;;16.00;99.90;;;;;;12178478;29;20196;-81
2022/06/16 08:30:25;;;;;;;1.55;0.50;;;15.90;99.90;;;;;;12197933;29;20497;-80
2022/06/16 08:36:27;;;;;;;3.15;0.70;;;16.10;99.90;;;;;;12169962;29;20108;-80
2022/06/16 08:42:51;;;;;;;1.35;0.50;;;16.20;99.90;;;;;;12202808;29;20048;-80
2022/06/16 08:49:18;;;;;;;1.63;0.70;;;16.30;99.90;;;;;;12193692;29;20083;-82
2022/06/16 08:55:44;;;;;;;2.88;0.60;;;16.50;99.90;;;;;;12197476;29;20151;-81
2022/06/16 09:01:56;;;;;;;5.57;0.90;;;16.70;99.90;;;;;;12181179;29;20072;-81
2022/06/16 09:08:18;;;;;;;4.45;0.70;;;16.80;99.90;;;;;;12178173;29;20060;-82
2022/06/16 09:15:16;;;;;;;4.38;0.95;;;17.00;99.90;;;;;;12168750;29;20063;-80
2022/06/16 09:21:41;;;;;;;1.63;0.68;;;17.10;99.90;;;;;;12133974;29;20056;-82
2022/06/16 09:27:50;;;;;;;3.17;0.90;;;17.20;99.90;;;;;;12224401;29;20109;-82
2022/06/16 09:34:02;;;;;;;2.22;0.80;;;17.50;99.90;;;;;;12186249;29;20148;-81
2022/06/16 09:40:23;;;;;;;4.00;0.80;;;17.70;99.90;;;;;;12192872;29;20096;-81
2022/06/16 09:46:35;;;;;;;2.63;0.77;;;17.80;99.90;;;;;;12171339;29;20060;-81
2022/06/16 09:52:48;;;;;;;3.42;0.88;;;17.90;99.90;;;;;;12196818;29;20511;-82
2022/06/16 09:59:04;;;;;;;4.17;0.70;;;18.10;99.90;;;;;;12183145;29;20493;-82
2022/06/16 10:05:13;;;;;;;3.50;0.73;;;18.30;99.90;;;;;;12169311;29;20044;-81
2022/06/16 10:11:39;;;;;;;2.38;0.63;;;18.50;99.90;;;;;;12180270;29;20564;-81
2022/06/16 10:17:43;;;;;;;2.17;0.77;;;18.70;99.90;;;;;;12176568;29;20460;-83
2022/06/16 10:23:51;;;;;;;1.77;0.50;;;18.80;99.90;;;;;;12179450;29;20075;-83
2022/06/16 10:29:59;;;;;;;3.90;0.90;;;18.90;99.90;;;;;;12190683;29;20131;-82
2022/06/16 10:36:06;;;;;;;1.90;0.60;;;19.10;99.90;;;;;;12182709;29;20178;-83
2022/06/16 10:42:21;;;;;;;2.60;0.73;;;19.30;99.90;;;;;;12188898;29;20056;-81
2022/06/16 10:48:34;;;;;;;2.78;0.95;;;19.40;99.90;;;;;;12177773;29;20060;-82
2022/06/16 10:54:54;;;;;;;4.83;1.20;;;19.50;99.90;;;;;;12173817;29;20139;-81
2022/06/16 11:01:17;;;;;;;2.22;0.75;;;19.50;99.90;;;;;;12192182;29;20401;-82
2022/06/16 11:07:22;;;;;;;1.52;0.75;;;19.70;99.90;;;;;;12183266;29;20147;-81
2022/06/16 11:13:32;;;;;;;4.45;1.00;;;20.00;99.90;;;;;;12175078;29;20134;-83
2022/06/16 11:19:43;;;;;;;2.90;1.23;;;19.80;99.90;;;;;;12206058;29;20185;-83
2022/06/16 11:25:45;;;;;;;1.42;0.70;;;19.90;99.90;;;;;;12200558;29;20131;-83
2022/06/16 11:32:00;;;;;;;3.70;0.75;;;20.30;99.90;;;;;;12212451;29;20036;-82
2022/06/16 11:38:36;;;;;;;2.88;0.75;;;20.20;99.90;;;;;;12217676;28;20083;-83
2022/06/16 11:44:53;;;;;;;3.17;0.68;;;20.50;99.90;;;;;;12202030;29;20137;-82
2022/06/16 11:51:14;;;;;;;3.10;0.98;;;20.70;99.90;;;;;;12199578;29;20103;-83
2022/06/16 11:57:16;;;;;;;4.85;1.13;;;20.70;99.90;;;;;;12203313;29;20191;-81
2022/06/16 12:03:37;;;;;;;2.60;0.98;;;21.10;99.90;;;;;;12187003;29;20048;-83
2022/06/16 12:09:50;;;;;;;5.38;1.00;;;20.90;99.90;;;;;;12202461;29;20079;-83
2022/06/16 12:16:22;;;;;;;3.22;1.20;;;21.20;99.90;;;;;;12175476;29;20242;-81
2022/06/16 12:22:38;;;;;;;2.53;1.10;;;21.20;99.90;;;;;;12190778;29;20055;-82
2022/06/16 12:28:48;;;;;;;2.47;0.90;;;21.20;99.90;;;;;;12181202;29;20707;-81
2022/06/16 12:35:17;;;;;;;6.63;1.10;;;21.20;99.90;;;;;;12179233;29;20052;-81
2022/06/16 12:41:28;;;;;;;2.50;1.10;;;21.00;99.90;;;;;;12204003;29;20060;-82
2022/06/16 12:47:37;;;;;;;3.25;1.05;;;21.30;99.90;;;;;;12198374;29;20048;-83
2022/06/16 12:53:44;;;;;;;3.10;1.02;;;21.50;99.90;;;;;;12197413;29;20048;-81
2022/06/16 13:00:05;;;;;;;2.90;1.20;;;21.60;99.90;;;;;;12185760;29;20083;-80
2022/06/16 13:06:09;;;;;;;3.45;1.10;;;21.40;99.90;;;;;;12170238;29;20060;-80
2022/06/16 13:12:30;;;;;;;4.68;1.27;;;21.60;99.90;;;;;;12185539;29;21750;-82
2022/06/16 13:18:42;;;;;;;3.47;1.30;;;21.70;99.90;;;;;;12201278;29;20196;-82
2022/06/16 13:24:53;;;;;;;6.50;1.20;;;20.90;99.90;;;;;;12177152;29;20056;-82
2022/06/16 13:31:22;;;;;;;2.72;1.20;;;20.60;99.90;;;;;;12185762;29;20135;-83
2022/06/16 13:37:32;;;;;;;3.25;1.15;;;20.50;99.90;;;;;;12191837;29;20111;-81
2022/06/16 13:43:36;;;;;;;4.22;1.55;;;20.80;99.90;;;;;;12184637;29;20576;-82
2022/06/16 13:49:46;;;;;;;3.53;1.48;;;21.10;99.90;;;;;;12213544;29;20109;-83
2022/06/16 13:55:59;;;;;;;3.13;1.30;;;20.70;99.90;;;;;;12228011;29;20036;-84
2022/06/16 14:02:16;;;;;;;3.78;1.30;;;20.80;99.90;;;;;;12207333;29;20416;-82
2022/06/16 14:08:19;;;;;;;5.40;1.27;;;21.00;99.90;;;;;;12193189;29;20067;-81
2022/06/16 14:14:21;;;;;;;3.00;1.17;;;20.80;99.90;;;;;;12204668;29;20231;-82
2022/06/16 14:20:45;;;;;;;6.15;1.40;;;21.00;99.90;;;;;;12183005;29;20056;-82
2022/06/16 14:26:48;;;;;;;5.97;1.42;;;21.20;99.90;;;;;;12198166;29;20056;-81
2022/06/16 14:32:56;;;;;;;4.03;1.23;;;21.30;99.90;;;;;;12193827;29;20048;-81
2022/06/16 14:39:33;;;;;;;5.30;1.30;;;21.40;99.90;;;;;;12189377;29;20179;-81
2022/06/16 14:45:39;;;;;;;2.92;1.70;;;21.40;99.90;;;;;;12174475;29;20079;-80
2022/06/16 14:51:45;;;;;;;2.72;1.10;;;21.10;99.90;;;;;;12185345;29;20048;-82
2022/06/16 14:57:49;;;;;;;3.72;1.30;;;21.30;99.90;;;;;;12192783;29;20111;-82
2022/06/16 15:03:54;;;;;;;5.45;1.20;;;20.90;99.90;;;;;;12186478;29;20211;-82
2022/06/16 15:09:56;;;;;;;3.20;1.08;;;20.70;99.90;;;;;;12184962;29;20056;-83
2022/06/16 15:16:02;;;;;;;3.65;1.40;;;21.10;99.90;;;;;;12178288;29;20512;-81
2022/06/16 15:22:05;;;;;;;3.58;1.27;;;21.50;99.90;;;;;;12182663;29;20170;-81
2022/06/16 15:28:17;;;;;;;2.40;1.00;;;21.70;99.90;;;;;;12192887;29;20110;-81
2022/06/16 15:40:40;;;;;;;5.53;1.10;;;21.40;99.90;;;;;;12208612;29;20079;-81
2022/06/16 15:46:49;;;;;;;5.80;1.77;;;21.20;99.90;;;;;;12188512;29;20052;-80
2022/06/16 15:52:55;;;;;;;2.72;1.10;;;20.90;99.90;;;;;;12207143;29;20059;-80
2022/06/16 15:59:09;;;;;;;3.28;1.35;;;20.70;99.90;;;;;;12173461;29;20457;-81
2022/06/16 16:05:13;;;;;;;4.93;1.40;;;20.60;99.90;;;;;;12181344;29;20533;-81
2022/06/16 16:11:24;;;;;;;4.13;1.50;;;20.40;99.90;;;;;;12167649;29;20541;-80
2022/06/16 16:17:44;;;;;;;4.03;1.40;;;20.40;99.90;;;;;;12176887;29;20188;-81
2022/06/16 16:23:49;;;;;;;5.10;1.30;;;20.50;99.90;;;;;;12185262;29;20472;-80
2022/06/16 16:29:55;;;;;;;5.88;1.48;;;20.90;99.90;;;;;;12191997;29;20056;-82
2022/06/16 16:36:25;;;;;;;3.95;1.50;;;20.90;99.90;;;;;;12184003;29;20198;-81
2022/06/16 16:48:54;;;;;;;5.13;1.27;;;21.20;99.90;;;;;;12208162;29;20055;-81
2022/06/16 16:55:15;;;;;;;3.92;1.17;;;21.50;99.90;;;;;;12178626;29;20095;-80
2022/06/16 17:01:17;;;;;;;3.60;1.00;;;21.50;99.90;;;;;;12190524;29;20052;-81
2022/06/16 17:07:20;;;;;;;2.73;1.20;;;21.40;99.90;;;;;;12182256;29;20489;-80
2022/06/16 17:13:22;;;;;;;3.07;1.00;;;21.50;99.90;;;;;;12190671;29;20573;-81
2022/06/16 17:19:31;;;;;;;6.45;1.17;;;21.60;99.90;;;;;;12160542;29;20055;-81
2022/06/16 17:25:35;;;;;;;3.67;1.10;;;21.50;99.90;;;;;;12181825;29;20408;-81
2022/06/16 17:31:39;;;;;;;3.88;0.93;;;21.50;99.90;;;;;;12175739;29;20049;-81
2022/06/16 17:37:41;;;;;;;2.85;1.42;;;21.30;99.90;;;;;;12174071;29;20110;-81
2022/06/16 17:43:44;;;;;;;3.75;1.05;;;21.20;99.90;;;;;;12191498;29;20052;-82
2022/06/16 17:49:46;;;;;;;3.97;1.20;;;21.00;99.90;;;;;;12179418;29;20056;-81
2022/06/16 18:02:18;;;;;;;2.95;1.10;;;21.30;99.90;;;;;;12194131;29;20536;-81
2022/06/16 18:08:25;;;;;;;3.47;1.02;;;21.50;99.90;;;;;;12177400;29;20049;-81
2022/06/16 18:14:27;;;;;;;2.05;0.85;;;21.60;99.90;;;;;;12191804;29;20096;-81
2022/06/16 18:20:38;;;;;;;3.75;1.05;;;21.40;99.90;;;;;;12188433;29;20048;-81
2022/06/16 18:26:50;;;;;;;4.55;1.10;;;20.90;99.90;;;;;;12196007;29;20568;-81
2022/06/16 18:32:52;;;;;;;2.85;0.80;;;20.60;99.90;;;;;;12207701;29;20052;-80
2022/06/16 18:38:54;;;;;;;4.47;0.93;;;20.40;99.90;;;;;;12191551;29;20067;-82
2022/06/16 18:44:56;;;;;;;6.25;0.98;;;20.00;99.90;;;;;;12193334;29;20051;-81
2022/06/16 18:50:58;;;;;;;6.78;1.02;;;19.80;99.90;;;;;;12172571;29;20111;-80
2022/06/16 18:57:00;;;;;;;2.63;0.90;;;19.70;99.90;;;;;;12177440;29;20060;-81
2022/06/16 19:03:03;;;;;;;3.78;1.20;;;19.50;99.90;;;;;;12183835;29;20059;-80
2022/06/16 19:09:10;;;;;;;4.43;1.27;;;19.40;99.90;;;;;;12180809;29;20063;-82
2022/06/16 19:15:12;;;;;;;4.00;1.00;;;19.30;99.90;;;;;;12191691;29;20497;-82
2022/06/16 19:21:21;;;;;;;2.00;1.00;;;19.20;99.90;;;;;;12180868;29;20192;-80
2022/06/16 19:27:25;;;;;;;4.10;1.27;;;19.10;99.90;;;;;;12191445;29;20056;-81
2022/06/16 19:33:27;;;;;;;2.80;1.45;;;19.10;99.90;;;;;;12173212;29;20143;-81
2022/06/16 19:39:30;;;;;;;2.60;1.05;;;19.10;99.90;;;;;;12199748;29;20204;-80
2022/06/16 19:51:53;;;;;;;3.50;1.60;;;19.10;99.90;;;;;;12184270;29;20473;-80
2022/06/16 19:57:55;;;;;;;3.35;1.23;;;19.10;99.90;;;;;;12177661;29;20675;-82
2022/06/16 20:03:57;;;;;;;4.35;1.58;;;18.90;99.90;;;;;;12188892;29;20147;-81
2022/06/16 20:10:00;;;;;;;3.47;1.20;;;18.90;99.90;;;;;;12164090;29;20643;-80
2022/06/16 20:16:03;;;;;;;9.43;5.57;;;18.70;99.90;;;;;;12185556;29;20167;-80
2022/06/16 20:22:05;;;;;;;8.73;4.80;;;18.70;99.90;;;;;;12190221;29;20564;-80
2022/06/16 20:28:07;;;;;;;4.88;1.80;;;18.60;99.90;;;;;;12184603;29;20416;-81
2022/06/16 20:34:17;;;;;;;6.28;2.70;;;18.50;99.90;;;;;;12193164;29;20044;-81
2022/06/16 20:40:20;;;;;;;4.18;1.50;;;18.50;99.90;;;;;;12204801;29;20106;-80
2022/06/16 20:46:22;;;;;;;6.07;1.50;;;18.40;99.90;;;;;;12180376;29;20142;-80
2022/06/16 20:52:26;;;;;;;7.30;1.58;;;18.20;99.90;;;;;;12165488;29;20047;-80
2022/06/16 21:04:48;;;;;;;3.45;1.60;;;17.90;99.90;;;;;;12205440;29;20116;-81
2022/06/16 21:10:51;;;;;;;2.33;1.30;;;17.90;99.90;;;;;;12204193;29;20465;-80
2022/06/16 21:16:55;;;;;;;3.50;1.50;;;17.90;99.90;;;;;;12174877;29;20057;-81
2022/06/16 21:22:58;;;;;;;3.50;1.48;;;17.80;99.90;;;;;;12162215;29;20072;-80
2022/06/16 21:29:00;;;;;;;3.58;1.20;;;17.70;99.90;;;;;;12165042;29;20079;-81
2022/06/16 21:35:03;;;;;;;4.15;1.30;;;17.50;99.90;;;;;;12189600;29;20053;-81
2022/06/16 21:41:11;;;;;;;2.70;1.40;;;17.30;99.90;;;;;;12185596;29;20051;-81
2022/06/16 21:47:28;;;;;;;4.43;1.35;;;17.00;99.90;;;;;;12171532;29;20163;-80
2022/06/16 21:53:34;;;;;;;3.95;1.63;;;16.80;99.90;;;;;;12171777;29;20143;-81
2022/06/16 21:59:36;;;;;;;3.42;1.48;;;16.70;99.90;;;;;;12187980;29;20056;-80
2022/06/16 22:05:38;;;;;;;3.00;1.23;;;16.70;99.90;;;;;;12171033;29;20523;-81
2022/06/16 22:18:04;;;;;;;6.38;1.52;;;16.70;99.90;;;;;;12195636;29;20098;-81
2022/06/16 22:24:06;;;;;;;;;;;16.60;99.90;;;;;;12200131;29;20513;-80
2022/06/16 22:30:12;;;;;;;3.83;1.80;;;16.50;99.90;;;;;;12173272;29;19923;-80
2022/06/16 22:36:16;;;;;;;2.78;1.60;;;16.40;99.90;;;;;;12189983;29;20176;-80
2022/06/16 22:42:18;;;;;;;5.20;1.52;;;16.30;99.90;;;;;;12197958;29;20174;-80
2022/06/16 22:48:37;;;;;;;2.85;1.80;;;16.30;99.90;;;;;;12199314;29;20052;-81
2022/06/16 23:01:01;;;;;;;3.63;1.70;;;16.20;99.90;;;;;;12210638;29;20056;-80
2022/06/16 23:07:04;;;;;;;4.15;1.80;;;16.20;99.90;;;;;;12225471;29;20088;-81
2022/06/16 23:13:11;;;;;;;3.83;1.40;;;16.10;99.90;;;;;;12217830;29;20056;-80
2022/06/16 23:19:14;;;;;;;4.13;2.00;;;16.10;99.90;;;;;;12184493;29;20126;-79
2022/06/16 23:25:21;;;;;;;3.53;1.73;;;16.20;99.90;;;;;;12186841;29;20047;-81
2022/06/16 23:31:23;;;;;;;4.88;1.60;;;16.10;99.90;;;;;;12206660;29;20432;-80
2022/06/16 23:37:28;;;;;;;2.70;1.33;;;16.20;99.90;;;;;;12210181;29;20062;-81
2022/06/16 23:43:30;;;;;;;3.75;1.80;;;16.10;99.90;;;;;;12171793;29;20521;-80
2022/06/16 23:49:37;;;;;;;6.43;1.80;;;16.00;99.90;;;;;;12187160;29;20095;-80
2022/06/16 23:55:40;;;;;;;3.55;1.63;;;16.00;99.90;;;;;;12185474;29;20135;-80
